sensor_id;sensor_type;location;lat;lon;timestamp;temperature;humidity
18335;DHT22;9293;49.524;10.964;2024-03-02T00:00:58;6.10;99.90
18335;DHT22;9293;49.524;10.964;2024-03-02T00:03:26;6.10;99.90
18335;DHT22;9293;49.524;10.964;2024-03-02T00:05:55;6.00;99.90
18335;DHT22;9293;49.524;10.964;2024-03-02T00:08:24;6.00;99.90
18335;DHT22;9293;49.524;10.964;2024-03-02T00:10:58;6.00;99.90
18335;DHT22;9293;49.524;10.964;2024-03-02T00:13:27;6.10;99.90
18335;DHT22;9293;49.524;10.964;2024-03-02T00:15:56;6.20;99.90
18335;DHT22;9293;49.524;10.964;2024-03-02T00:18:33;6.20;99.90
18335;DHT22;9293;49.524;10.964;2024-03-02T00:21:03;6.30;99.90
18335;DHT22;9293;49.524;10.964;2024-03-02T00:23:34;6.30;99.90
18335;DHT22;9293;49.524;10.964;2024-03-02T00:26:03;6.30;99.90
18335;DHT22;9293;49.524;10.964;2024-03-02T00:28:33;6.40;99.90
18335;DHT22;9293;49.524;10.964;2024-03-02T00:31:10;6.40;99.90
18335;DHT22;9293;49.524;10.964;2024-03-02T00:33:47;6.30;99.90
18335;DHT22;9293;49.524;10.964;2024-03-02T00:36:21;6.30;99.90
18335;DHT22;9293;49.524;10.964;2024-03-02T00:38:51;6.30;99.90
18335;DHT22;9293;49.524;10.964;2024-03-02T00:44:06;6.30;99.90
18335;DHT22;9293;49.524;10.964;2024-03-02T00:46:40;6.30;99.90
18335;DHT22;9293;49.524;10.964;2024-03-02T00:51:46;6.30;99.90
18335;DHT22;9293;49.524;10.964;2024-03-02T00:54:29;6.20;99.90
18335;DHT22;9293;49.524;10.964;2024-03-02T00:56:58;6.20;99.90
18335;DHT22;9293;49.524;10.964;2024-03-02T00:59:27;6.20;99.90
18335;DHT22;9293;49.524;10.964;2024-03-02T01:01:55;6.10;99.90
18335;DHT22;9293;49.524;10.964;2024-03-02T01:04:23;6.10;99.90
18335;DHT22;9293;49.524;10.964;2024-03-02T01:06:52;6.20;99.90
18335;DHT22;9293;49.524;10.964;2024-03-02T01:09:20;6.30;99.90
18335;DHT22;9293;49.524;10.964;2024-03-02T01:11:48;6.30;99.90
18335;DHT22;9293;49.524;10.964;2024-03-02T01:14:17;6.20;99.90
18335;DHT22;9293;49.524;10.964;2024-03-02T01:16:45;6.10;99.90
18335;DHT22;9293;49.524;10.964;2024-03-02T01:19:14;6.10;99.90
18335;DHT22;9293;49.524;10.964;2024-03-02T01:21:43;6.20;99.90
18335;DHT22;9293;49.524;10.964;2024-03-02T01:24:11;6.20;99.90
18335;DHT22;9293;49.524;10.964;2024-03-02T01:26:41;6.30;99.90
18335;DHT22;9293;49.524;10.964;2024-03-02T01:29:09;6.30;99.90
18335;DHT22;9293;49.524;10.964;2024-03-02T01:31:38;6.30;99.90
18335;DHT22;9293;49.524;10.964;2024-03-02T01:34:08;6.30;99.90
18335;DHT22;9293;49.524;10.964;2024-03-02T01:36:36;6.30;99.90
18335;DHT22;9293;49.524;10.964;2024-03-02T01:39:05;6.20;99.90
18335;DHT22;9293;49.524;10.964;2024-03-02T01:41:37;6.20;99.90
18335;DHT22;9293;49.524;10.964;2024-03-02T01:44:05;6.20;99.90
18335;DHT22;9293;49.524;10.964;2024-03-02T01:46:33;6.20;99.90
18335;DHT22;9293;49.524;10.964;2024-03-02T01:49:03;6.20;99.90
18335;DHT22;9293;49.524;10.964;2024-03-02T01:51:32;6.20;99.90
18335;DHT22;9293;49.524;10.964;2024-03-02T01:54:01;6.20;99.90
18335;DHT22;9293;49.524;10.964;2024-03-02T01:56:29;6.30;99.90
18335;DHT22;9293;49.524;10.964;2024-03-02T01:58:57;6.30;99.90
18335;DHT22;9293;49.524;10.964;2024-03-02T02:01:26;6.30;99.90
18335;DHT22;9293;49.524;10.964;2024-03-02T02:03:54;6.20;99.90
18335;DHT22;9293;49.524;10.964;2024-03-02T02:06:23;6.20;99.90
18335;DHT22;9293;49.524;10.964;2024-03-02T02:08:52;6.20;99.90
18335;DHT22;9293;49.524;10.964;2024-03-02T02:11:20;6.20;99.90
18335;DHT22;9293;49.524;10.964;2024-03-02T02:13:48;6.10;99.90
18335;DHT22;9293;49.524;10.964;2024-03-02T02:16:16;6.10;99.90
18335;DHT22;9293;49.524;10.964;2024-03-02T02:18:45;6.10;99.90
18335;DHT22;9293;49.524;10.964;2024-03-02T02:21:13;6.10;99.90
18335;DHT22;9293;49.524;10.964;2024-03-02T02:23:41;6.10;99.90
18335;DHT22;9293;49.524;10.964;2024-03-02T02:26:20;6.00;99.90
18335;DHT22;9293;49.524;10.964;2024-03-02T02:28:48;5.90;99.90
18335;DHT22;9293;49.524;10.964;2024-03-02T02:31:16;5.90;99.90
18335;DHT22;9293;49.524;10.964;2024-03-02T02:33:45;5.90;99.90
18335;DHT22;9293;49.524;10.964;2024-03-02T02:36:13;5.80;99.90
18335;DHT22;9293;49.524;10.964;2024-03-02T02:38:46;5.80;99.90
18335;DHT22;9293;49.524;10.964;2024-03-02T02:41:15;5.80;99.90
18335;DHT22;9293;49.524;10.964;2024-03-02T02:43:43;5.80;99.90
18335;DHT22;9293;49.524;10.964;2024-03-02T02:46:12;5.80;99.90
18335;DHT22;9293;49.524;10.964;2024-03-02T02:48:40;5.90;99.90
18335;DHT22;9293;49.524;10.964;2024-03-02T02:51:09;5.90;99.90
18335;DHT22;9293;49.524;10.964;2024-03-02T02:53:37;5.90;99.90
18335;DHT22;9293;49.524;10.964;2024-03-02T02:56:09;6.00;99.90
18335;DHT22;9293;49.524;10.964;2024-03-02T02:58:37;6.00;99.90
18335;DHT22;9293;49.524;10.964;2024-03-02T03:01:05;6.00;99.90
18335;DHT22;9293;49.524;10.964;2024-03-02T03:03:34;6.00;99.90
18335;DHT22;9293;49.524;10.964;2024-03-02T03:06:03;6.00;99.90
18335;DHT22;9293;49.524;10.964;2024-03-02T03:08:31;6.10;99.90
18335;DHT22;9293;49.524;10.964;2024-03-02T03:11:00;6.10;99.90
18335;DHT22;9293;49.524;10.964;2024-03-02T03:13:28;6.20;99.90
18335;DHT22;9293;49.524;10.964;2024-03-02T03:15:56;6.20;99.90
18335;DHT22;9293;49.524;10.964;2024-03-02T03:18:25;6.20;99.90
18335;DHT22;9293;49.524;10.964;2024-03-02T03:20:53;6.20;99.90
18335;DHT22;9293;49.524;10.964;2024-03-02T03:23:22;6.30;99.90
18335;DHT22;9293;49.524;10.964;2024-03-02T03:25:50;6.30;99.90
18335;DHT22;9293;49.524;10.964;2024-03-02T03:28:18;6.30;99.90
18335;DHT22;9293;49.524;10.964;2024-03-02T03:30:46;6.30;99.90
18335;DHT22;9293;49.524;10.964;2024-03-02T03:33:15;6.30;99.90
18335;DHT22;9293;49.524;10.964;2024-03-02T03:35:43;6.30;99.90
18335;DHT22;9293;49.524;10.964;2024-03-02T03:38:11;6.30;99.90
18335;DHT22;9293;49.524;10.964;2024-03-02T03:40:40;6.30;99.90
18335;DHT22;9293;49.524;10.964;2024-03-02T03:43:08;6.40;99.90
18335;DHT22;9293;49.524;10.964;2024-03-02T03:45:36;6.40;99.90
18335;DHT22;9293;49.524;10.964;2024-03-02T03:48:05;6.40;99.90
18335;DHT22;9293;49.524;10.964;2024-03-02T03:50:33;6.40;99.90
18335;DHT22;9293;49.524;10.964;2024-03-02T03:53:02;6.40;99.90
18335;DHT22;9293;49.524;10.964;2024-03-02T03:55:30;6.40;99.90
18335;DHT22;9293;49.524;10.964;2024-03-02T03:57:59;6.40;99.90
18335;DHT22;9293;49.524;10.964;2024-03-02T04:00:28;6.40;99.90
18335;DHT22;9293;49.524;10.964;2024-03-02T04:02:56;6.40;99.90
18335;DHT22;9293;49.524;10.964;2024-03-02T04:05:24;6.40;99.90
18335;DHT22;9293;49.524;10.964;2024-03-02T04:07:56;6.40;99.90
18335;DHT22;9293;49.524;10.964;2024-03-02T04:10:27;6.30;99.90
18335;DHT22;9293;49.524;10.964;2024-03-02T04:12:57;6.30;99.90
18335;DHT22;9293;49.524;10.964;2024-03-02T04:15:25;6.30;99.90
18335;DHT22;9293;49.524;10.964;2024-03-02T04:17:54;6.30;99.90
18335;DHT22;9293;49.524;10.964;2024-03-02T04:20:23;6.20;99.90
18335;DHT22;9293;49.524;10.964;2024-03-02T04:22:51;6.10;99.90
18335;DHT22;9293;49.524;10.964;2024-03-02T04:25:19;6.00;99.90
18335;DHT22;9293;49.524;10.964;2024-03-02T04:27:48;5.90;99.90
18335;DHT22;9293;49.524;10.964;2024-03-02T04:30:16;5.90;99.90
18335;DHT22;9293;49.524;10.964;2024-03-02T04:32:45;5.70;99.90
18335;DHT22;9293;49.524;10.964;2024-03-02T04:35:14;5.70;99.90
18335;DHT22;9293;49.524;10.964;2024-03-02T04:37:43;5.70;99.90
18335;DHT22;9293;49.524;10.964;2024-03-02T04:40:12;5.60;99.90
18335;DHT22;9293;49.524;10.964;2024-03-02T04:42:40;5.60;99.90
18335;DHT22;9293;49.524;10.964;2024-03-02T04:45:09;5.70;99.90
18335;DHT22;9293;49.524;10.964;2024-03-02T04:47:37;5.70;99.90
18335;DHT22;9293;49.524;10.964;2024-03-02T04:50:06;5.80;99.90
18335;DHT22;9293;49.524;10.964;2024-03-02T04:52:36;5.80;99.90
18335;DHT22;9293;49.524;10.964;2024-03-02T04:55:04;5.90;99.90
18335;DHT22;9293;49.524;10.964;2024-03-02T04:57:45;6.00;99.90
18335;DHT22;9293;49.524;10.964;2024-03-02T05:00:15;6.00;99.90
18335;DHT22;9293;49.524;10.964;2024-03-02T05:02:44;6.00;99.90
18335;DHT22;9293;49.524;10.964;2024-03-02T05:05:12;6.00;99.90
18335;DHT22;9293;49.524;10.964;2024-03-02T05:07:43;6.00;99.90
18335;DHT22;9293;49.524;10.964;2024-03-02T05:10:12;6.00;99.90
18335;DHT22;9293;49.524;10.964;2024-03-02T05:12:40;6.00;99.90
18335;DHT22;9293;49.524;10.964;2024-03-02T05:15:14;6.00;99.90
18335;DHT22;9293;49.524;10.964;2024-03-02T05:17:42;5.90;99.90
18335;DHT22;9293;49.524;10.964;2024-03-02T05:20:12;5.90;99.90
18335;DHT22;9293;49.524;10.964;2024-03-02T05:22:40;5.90;99.90
18335;DHT22;9293;49.524;10.964;2024-03-02T05:25:13;5.90;99.90
18335;DHT22;9293;49.524;10.964;2024-03-02T05:27:46;5.90;99.90
18335;DHT22;9293;49.524;10.964;2024-03-02T05:30:15;5.90;99.90
18335;DHT22;9293;49.524;10.964;2024-03-02T05:32:44;5.90;99.90
18335;DHT22;9293;49.524;10.964;2024-03-02T05:35:12;5.90;99.90
18335;DHT22;9293;49.524;10.964;2024-03-02T05:37:41;5.90;99.90
18335;DHT22;9293;49.524;10.964;2024-03-02T05:40:09;5.90;99.90
18335;DHT22;9293;49.524;10.964;2024-03-02T05:42:39;6.00;99.90
18335;DHT22;9293;49.524;10.964;2024-03-02T05:45:09;6.00;99.90
18335;DHT22;9293;49.524;10.964;2024-03-02T05:47:38;6.00;99.90
18335;DHT22;9293;49.524;10.964;2024-03-02T05:50:06;5.90;99.90
18335;DHT22;9293;49.524;10.964;2024-03-02T05:52:35;5.90;99.90
18335;DHT22;9293;49.524;10.964;2024-03-02T05:55:03;5.90;99.90
18335;DHT22;9293;49.524;10.964;2024-03-02T05:57:33;5.90;99.90
18335;DHT22;9293;49.524;10.964;2024-03-02T06:00:17;5.90;99.90
18335;DHT22;9293;49.524;10.964;2024-03-02T06:02:46;5.90;99.90
18335;DHT22;9293;49.524;10.964;2024-03-02T06:05:14;5.90;99.90
18335;DHT22;9293;49.524;10.964;2024-03-02T06:07:43;5.90;99.90
18335;DHT22;9293;49.524;10.964;2024-03-02T06:10:12;5.90;99.90
18335;DHT22;9293;49.524;10.964;2024-03-02T06:12:41;5.90;99.90
18335;DHT22;9293;49.524;10.964;2024-03-02T06:15:10;5.90;99.90
18335;DHT22;9293;49.524;10.964;2024-03-02T06:17:39;5.80;99.90
18335;DHT22;9293;49.524;10.964;2024-03-02T06:20:07;5.80;99.90
18335;DHT22;9293;49.524;10.964;2024-03-02T06:22:36;5.80;99.90
18335;DHT22;9293;49.524;10.964;2024-03-02T06:25:05;5.80;99.90
18335;DHT22;9293;49.524;10.964;2024-03-02T06:27:37;5.80;99.90
18335;DHT22;9293;49.524;10.964;2024-03-02T06:30:08;5.80;99.90
18335;DHT22;9293;49.524;10.964;2024-03-02T06:32:37;5.80;99.90
18335;DHT22;9293;49.524;10.964;2024-03-02T06:35:06;5.80;99.90
18335;DHT22;9293;49.524;10.964;2024-03-02T06:37:38;5.90;99.90
18335;DHT22;9293;49.524;10.964;2024-03-02T06:40:08;5.90;99.90
18335;DHT22;9293;49.524;10.964;2024-03-02T06:42:36;5.90;99.90
18335;DHT22;9293;49.524;10.964;2024-03-02T06:45:05;5.90;99.90
18335;DHT22;9293;49.524;10.964;2024-03-02T06:47:34;5.90;99.90
18335;DHT22;9293;49.524;10.964;2024-03-02T06:50:02;5.80;99.90
18335;DHT22;9293;49.524;10.964;2024-03-02T06:52:30;5.70;99.90
18335;DHT22;9293;49.524;10.964;2024-03-02T06:54:59;5.70;99.90
18335;DHT22;9293;49.524;10.964;2024-03-02T06:57:27;5.70;99.90
18335;DHT22;9293;49.524;10.964;2024-03-02T06:59:56;5.70;99.90
18335;DHT22;9293;49.524;10.964;2024-03-02T07:02:27;5.80;99.90
18335;DHT22;9293;49.524;10.964;2024-03-02T07:04:55;5.80;99.90
18335;DHT22;9293;49.524;10.964;2024-03-02T07:07:24;5.90;99.90
18335;DHT22;9293;49.524;10.964;2024-03-02T07:09:52;6.00;99.90
18335;DHT22;9293;49.524;10.964;2024-03-02T07:12:21;6.00;99.90
18335;DHT22;9293;49.524;10.964;2024-03-02T07:14:49;6.30;99.90
18335;DHT22;9293;49.524;10.964;2024-03-02T07:17:33;6.70;99.90
18335;DHT22;9293;49.524;10.964;2024-03-02T07:20:01;7.30;99.90
18335;DHT22;9293;49.524;10.964;2024-03-02T07:22:29;7.90;99.90
18335;DHT22;9293;49.524;10.964;2024-03-02T07:24:58;8.40;99.90
18335;DHT22;9293;49.524;10.964;2024-03-02T07:27:27;8.50;99.90
18335;DHT22;9293;49.524;10.964;2024-03-02T07:29:55;8.40;99.90
18335;DHT22;9293;49.524;10.964;2024-03-02T07:32:23;8.30;99.90
18335;DHT22;9293;49.524;10.964;2024-03-02T07:34:52;8.20;99.90
18335;DHT22;9293;49.524;10.964;2024-03-02T07:37:20;8.00;99.90
18335;DHT22;9293;49.524;10.964;2024-03-02T07:39:50;8.00;99.90
18335;DHT22;9293;49.524;10.964;2024-03-02T07:42:21;7.90;99.90
18335;DHT22;9293;49.524;10.964;2024-03-02T07:44:57;7.90;99.90
18335;DHT22;9293;49.524;10.964;2024-03-02T07:47:26;7.90;99.90
18335;DHT22;9293;49.524;10.964;2024-03-02T07:49:54;7.90;99.90
18335;DHT22;9293;49.524;10.964;2024-03-02T07:52:22;8.00;99.90
18335;DHT22;9293;49.524;10.964;2024-03-02T07:54:51;8.00;99.90
18335;DHT22;9293;49.524;10.964;2024-03-02T07:57:19;8.00;99.90
18335;DHT22;9293;49.524;10.964;2024-03-02T07:59:47;8.10;99.90
18335;DHT22;9293;49.524;10.964;2024-03-02T08:02:17;8.10;99.90
18335;DHT22;9293;49.524;10.964;2024-03-02T08:04:46;8.20;99.90
18335;DHT22;9293;49.524;10.964;2024-03-02T08:07:14;8.20;99.90
18335;DHT22;9293;49.524;10.964;2024-03-02T08:09:42;8.40;99.90
18335;DHT22;9293;49.524;10.964;2024-03-02T08:12:11;8.50;99.90
18335;DHT22;9293;49.524;10.964;2024-03-02T08:14:39;8.60;99.90
18335;DHT22;9293;49.524;10.964;2024-03-02T08:17:08;8.60;99.90
18335;DHT22;9293;49.524;10.964;2024-03-02T08:19:37;8.80;99.90
18335;DHT22;9293;49.524;10.964;2024-03-02T08:22:06;8.80;99.90
18335;DHT22;9293;49.524;10.964;2024-03-02T08:24:35;8.80;99.90
18335;DHT22;9293;49.524;10.964;2024-03-02T08:27:04;9.00;99.90
18335;DHT22;9293;49.524;10.964;2024-03-02T08:29:32;9.30;99.90
18335;DHT22;9293;49.524;10.964;2024-03-02T08:32:01;9.30;99.90
18335;DHT22;9293;49.524;10.964;2024-03-02T08:34:29;9.40;99.90
18335;DHT22;9293;49.524;10.964;2024-03-02T08:36:57;9.80;99.90
18335;DHT22;9293;49.524;10.964;2024-03-02T08:39:25;10.10;99.90
18335;DHT22;9293;49.524;10.964;2024-03-02T08:41:54;10.20;99.90
18335;DHT22;9293;49.524;10.964;2024-03-02T08:44:22;10.20;99.90
18335;DHT22;9293;49.524;10.964;2024-03-02T08:46:51;10.30;99.90
18335;DHT22;9293;49.524;10.964;2024-03-02T08:49:19;10.20;99.90
18335;DHT22;9293;49.524;10.964;2024-03-02T08:51:48;10.00;99.90
18335;DHT22;9293;49.524;10.964;2024-03-02T08:54:22;10.00;99.90
18335;DHT22;9293;49.524;10.964;2024-03-02T08:56:51;10.00;99.90
18335;DHT22;9293;49.524;10.964;2024-03-02T08:59:19;10.10;99.90
18335;DHT22;9293;49.524;10.964;2024-03-02T09:01:48;10.30;99.90
18335;DHT22;9293;49.524;10.964;2024-03-02T09:04:16;10.30;99.90
18335;DHT22;9293;49.524;10.964;2024-03-02T09:06:45;10.20;99.90
18335;DHT22;9293;49.524;10.964;2024-03-02T09:09:13;10.30;99.90
18335;DHT22;9293;49.524;10.964;2024-03-02T09:11:41;10.40;99.90
18335;DHT22;9293;49.524;10.964;2024-03-02T09:14:10;10.30;99.90
18335;DHT22;9293;49.524;10.964;2024-03-02T09:16:41;10.30;99.90
18335;DHT22;9293;49.524;10.964;2024-03-02T09:19:12;10.20;99.90
18335;DHT22;9293;49.524;10.964;2024-03-02T09:21:43;10.30;99.90
18335;DHT22;9293;49.524;10.964;2024-03-02T09:24:12;10.50;99.90
18335;DHT22;9293;49.524;10.964;2024-03-02T09:26:44;10.50;99.90
18335;DHT22;9293;49.524;10.964;2024-03-02T09:29:12;10.50;99.90
18335;DHT22;9293;49.524;10.964;2024-03-02T09:31:41;10.60;99.90
18335;DHT22;9293;49.524;10.964;2024-03-02T09:34:10;10.70;99.90
18335;DHT22;9293;49.524;10.964;2024-03-02T09:36:38;10.80;99.90
18335;DHT22;9293;49.524;10.964;2024-03-02T09:39:10;11.00;99.90
18335;DHT22;9293;49.524;10.964;2024-03-02T09:41:38;11.10;99.90
18335;DHT22;9293;49.524;10.964;2024-03-02T09:44:06;11.10;99.90
18335;DHT22;9293;49.524;10.964;2024-03-02T09:46:35;11.20;99.90
18335;DHT22;9293;49.524;10.964;2024-03-02T09:49:04;11.20;99.90
18335;DHT22;9293;49.524;10.964;2024-03-02T09:51:33;11.20;99.90
18335;DHT22;9293;49.524;10.964;2024-03-02T09:54:04;11.10;99.90
18335;DHT22;9293;49.524;10.964;2024-03-02T09:56:47;11.10;99.90
18335;DHT22;9293;49.524;10.964;2024-03-02T09:59:15;11.20;99.90
18335;DHT22;9293;49.524;10.964;2024-03-02T10:02:02;11.30;99.90
18335;DHT22;9293;49.524;10.964;2024-03-02T10:04:34;11.30;99.90
18335;DHT22;9293;49.524;10.964;2024-03-02T10:07:12;11.30;99.90
18335;DHT22;9293;49.524;10.964;2024-03-02T10:09:42;11.30;99.90
18335;DHT22;9293;49.524;10.964;2024-03-02T10:12:12;11.30;99.90
18335;DHT22;9293;49.524;10.964;2024-03-02T10:14:40;11.30;99.90
18335;DHT22;9293;49.524;10.964;2024-03-02T10:17:11;11.30;99.90
18335;DHT22;9293;49.524;10.964;2024-03-02T10:19:40;11.30;99.90
18335;DHT22;9293;49.524;10.964;2024-03-02T10:22:09;11.40;99.90
18335;DHT22;9293;49.524;10.964;2024-03-02T10:24:39;11.50;99.90
18335;DHT22;9293;49.524;10.964;2024-03-02T10:27:23;11.70;99.90
18335;DHT22;9293;49.524;10.964;2024-03-02T10:29:51;11.70;99.90
18335;DHT22;9293;49.524;10.964;2024-03-02T10:32:22;11.70;99.90
18335;DHT22;9293;49.524;10.964;2024-03-02T10:34:51;11.70;99.90
18335;DHT22;9293;49.524;10.964;2024-03-02T10:37:21;11.70;99.90
18335;DHT22;9293;49.524;10.964;2024-03-02T10:39:49;11.70;99.90
18335;DHT22;9293;49.524;10.964;2024-03-02T10:42:21;11.70;99.90
18335;DHT22;9293;49.524;10.964;2024-03-02T10:44:52;11.80;99.90
18335;DHT22;9293;49.524;10.964;2024-03-02T10:47:25;11.90;99.90
18335;DHT22;9293;49.524;10.964;2024-03-02T10:49:58;12.00;99.90
18335;DHT22;9293;49.524;10.964;2024-03-02T10:52:27;12.20;99.90
18335;DHT22;9293;49.524;10.964;2024-03-02T10:54:55;12.30;99.90
18335;DHT22;9293;49.524;10.964;2024-03-02T10:57:25;12.50;99.90
18335;DHT22;9293;49.524;10.964;2024-03-02T11:00:00;12.50;99.90
18335;DHT22;9293;49.524;10.964;2024-03-02T11:02:31;12.60;99.90
18335;DHT22;9293;49.524;10.964;2024-03-02T11:05:00;12.60;99.90
18335;DHT22;9293;49.524;10.964;2024-03-02T11:07:31;12.80;99.90
18335;DHT22;9293;49.524;10.964;2024-03-02T11:10:01;12.80;99.90
18335;DHT22;9293;49.524;10.964;2024-03-02T11:12:39;12.90;99.90
18335;DHT22;9293;49.524;10.964;2024-03-02T11:15:17;13.00;99.90
18335;DHT22;9293;49.524;10.964;2024-03-02T11:17:48;13.20;99.90
18335;DHT22;9293;49.524;10.964;2024-03-02T11:20:17;13.30;99.90
18335;DHT22;9293;49.524;10.964;2024-03-02T11:22:50;13.30;99.90
18335;DHT22;9293;49.524;10.964;2024-03-02T11:25:27;13.30;99.90
18335;DHT22;9293;49.524;10.964;2024-03-02T11:33:04;13.30;99.90
18335;DHT22;9293;49.524;10.964;2024-03-02T11:35:44;13.40;99.90
18335;DHT22;9293;49.524;10.964;2024-03-02T11:38:17;13.40;99.90
18335;DHT22;9293;49.524;10.964;2024-03-02T11:40:46;13.40;99.90
18335;DHT22;9293;49.524;10.964;2024-03-02T11:43:14;13.30;99.90
18335;DHT22;9293;49.524;10.964;2024-03-02T11:45:43;13.30;99.90
18335;DHT22;9293;49.524;10.964;2024-03-02T11:48:14;13.20;99.90
18335;DHT22;9293;49.524;10.964;2024-03-02T11:50:49;13.30;99.90
18335;DHT22;9293;49.524;10.964;2024-03-02T11:53:18;13.40;99.90
18335;DHT22;9293;49.524;10.964;2024-03-02T11:55:47;13.70;99.90
18335;DHT22;9293;49.524;10.964;2024-03-02T11:58:17;13.80;99.90
18335;DHT22;9293;49.524;10.964;2024-03-02T12:00:55;14.10;99.90
18335;DHT22;9293;49.524;10.964;2024-03-02T12:03:25;14.00;99.90
18335;DHT22;9293;49.524;10.964;2024-03-02T12:05:55;14.00;99.90
18335;DHT22;9293;49.524;10.964;2024-03-02T12:08:23;13.90;99.90
18335;DHT22;9293;49.524;10.964;2024-03-02T12:10:59;13.80;99.90
18335;DHT22;9293;49.524;10.964;2024-03-02T12:13:30;13.70;99.90
18335;DHT22;9293;49.524;10.964;2024-03-02T12:15:59;13.70;99.90
18335;DHT22;9293;49.524;10.964;2024-03-02T12:18:27;13.80;99.90
18335;DHT22;9293;49.524;10.964;2024-03-02T12:20:56;14.00;99.90
18335;DHT22;9293;49.524;10.964;2024-03-02T12:23:26;14.20;99.90
18335;DHT22;9293;49.524;10.964;2024-03-02T12:25:54;14.50;99.90
18335;DHT22;9293;49.524;10.964;2024-03-02T12:28:23;14.80;99.90
18335;DHT22;9293;49.524;10.964;2024-03-02T12:30:51;15.10;99.90
18335;DHT22;9293;49.524;10.964;2024-03-02T12:33:20;15.40;99.90
18335;DHT22;9293;49.524;10.964;2024-03-02T12:35:49;15.40;99.90
18335;DHT22;9293;49.524;10.964;2024-03-02T12:38:17;15.40;99.90
18335;DHT22;9293;49.524;10.964;2024-03-02T12:40:48;15.60;99.90
18335;DHT22;9293;49.524;10.964;2024-03-02T12:43:17;15.70;99.90
18335;DHT22;9293;49.524;10.964;2024-03-02T12:45:45;15.70;99.90
18335;DHT22;9293;49.524;10.964;2024-03-02T12:48:14;15.40;99.90
18335;DHT22;9293;49.524;10.964;2024-03-02T12:50:43;15.30;99.90
18335;DHT22;9293;49.524;10.964;2024-03-02T12:53:15;15.40;99.90
18335;DHT22;9293;49.524;10.964;2024-03-02T12:55:44;15.50;99.90
18335;DHT22;9293;49.524;10.964;2024-03-02T12:58:22;15.70;99.90
18335;DHT22;9293;49.524;10.964;2024-03-02T13:01:08;15.60;99.90
18335;DHT22;9293;49.524;10.964;2024-03-02T13:03:39;15.80;99.90
18335;DHT22;9293;49.524;10.964;2024-03-02T13:06:08;15.80;99.90
18335;DHT22;9293;49.524;10.964;2024-03-02T13:08:37;15.90;99.90
18335;DHT22;9293;49.524;10.964;2024-03-02T13:11:06;15.90;99.90
18335;DHT22;9293;49.524;10.964;2024-03-02T13:13:35;15.80;99.90
18335;DHT22;9293;49.524;10.964;2024-03-02T13:16:07;15.70;99.90
18335;DHT22;9293;49.524;10.964;2024-03-02T13:18:38;15.50;99.90
18335;DHT22;9293;49.524;10.964;2024-03-02T13:21:07;15.50;99.90
18335;DHT22;9293;49.524;10.964;2024-03-02T13:23:37;15.60;99.90
18335;DHT22;9293;49.524;10.964;2024-03-02T13:26:08;15.60;99.90
18335;DHT22;9293;49.524;10.964;2024-03-02T13:28:38;15.60;99.90
18335;DHT22;9293;49.524;10.964;2024-03-02T13:31:07;15.60;99.90
18335;DHT22;9293;49.524;10.964;2024-03-02T13:33:37;15.70;99.90
18335;DHT22;9293;49.524;10.964;2024-03-02T13:36:08;15.70;99.90
18335;DHT22;9293;49.524;10.964;2024-03-02T13:38:36;15.70;99.90
18335;DHT22;9293;49.524;10.964;2024-03-02T13:41:05;15.80;99.90
18335;DHT22;9293;49.524;10.964;2024-03-02T13:43:33;15.80;99.90
18335;DHT22;9293;49.524;10.964;2024-03-02T13:46:03;15.70;99.90
18335;DHT22;9293;49.524;10.964;2024-03-02T13:48:41;15.50;99.90
18335;DHT22;9293;49.524;10.964;2024-03-02T13:51:13;15.00;99.90
18335;DHT22;9293;49.524;10.964;2024-03-02T13:53:41;14.90;99.90
18335;DHT22;9293;49.524;10.964;2024-03-02T13:56:09;15.00;99.90
18335;DHT22;9293;49.524;10.964;2024-03-02T13:58:45;15.10;99.90
18335;DHT22;9293;49.524;10.964;2024-03-02T14:01:14;15.20;99.90
18335;DHT22;9293;49.524;10.964;2024-03-02T14:03:42;15.30;99.90
18335;DHT22;9293;49.524;10.964;2024-03-02T14:06:11;15.50;99.90
18335;DHT22;9293;49.524;10.964;2024-03-02T14:08:39;15.70;99.90
18335;DHT22;9293;49.524;10.964;2024-03-02T14:11:10;15.90;99.90
18335;DHT22;9293;49.524;10.964;2024-03-02T14:13:43;16.20;99.90
18335;DHT22;9293;49.524;10.964;2024-03-02T14:16:17;16.30;99.90
18335;DHT22;9293;49.524;10.964;2024-03-02T14:18:45;16.50;99.90
18335;DHT22;9293;49.524;10.964;2024-03-02T14:21:14;16.80;99.90
18335;DHT22;9293;49.524;10.964;2024-03-02T14:23:42;16.80;99.90
18335;DHT22;9293;49.524;10.964;2024-03-02T14:26:10;16.60;99.90
18335;DHT22;9293;49.524;10.964;2024-03-02T14:28:39;16.80;99.90
18335;DHT22;9293;49.524;10.964;2024-03-02T14:31:17;16.90;99.90
18335;DHT22;9293;49.524;10.964;2024-03-02T14:33:46;16.90;99.90
18335;DHT22;9293;49.524;10.964;2024-03-02T14:36:14;17.10;99.90
18335;DHT22;9293;49.524;10.964;2024-03-02T14:38:46;17.20;99.90
18335;DHT22;9293;49.524;10.964;2024-03-02T14:41:16;17.30;99.90
18335;DHT22;9293;49.524;10.964;2024-03-02T14:43:44;17.30;99.90
18335;DHT22;9293;49.524;10.964;2024-03-02T14:46:15;17.20;99.90
18335;DHT22;9293;49.524;10.964;2024-03-02T14:48:47;17.10;99.90
18335;DHT22;9293;49.524;10.964;2024-03-02T14:51:16;17.20;99.90
18335;DHT22;9293;49.524;10.964;2024-03-02T14:53:53;17.40;99.90
18335;DHT22;9293;49.524;10.964;2024-03-02T14:56:23;17.40;99.90
18335;DHT22;9293;49.524;10.964;2024-03-02T14:58:52;17.30;99.90
18335;DHT22;9293;49.524;10.964;2024-03-02T15:01:21;17.10;99.90
18335;DHT22;9293;49.524;10.964;2024-03-02T15:03:52;16.90;99.90
18335;DHT22;9293;49.524;10.964;2024-03-02T15:06:23;16.90;99.90
18335;DHT22;9293;49.524;10.964;2024-03-02T15:08:54;17.10;99.90
18335;DHT22;9293;49.524;10.964;2024-03-02T15:11:25;17.20;99.90
18335;DHT22;9293;49.524;10.964;2024-03-02T15:13:53;17.40;99.90
18335;DHT22;9293;49.524;10.964;2024-03-02T15:16:21;17.10;99.90
18335;DHT22;9293;49.524;10.964;2024-03-02T15:18:50;17.00;99.90
18335;DHT22;9293;49.524;10.964;2024-03-02T15:21:18;16.90;99.90
18335;DHT22;9293;49.524;10.964;2024-03-02T15:23:49;16.50;99.90
18335;DHT22;9293;49.524;10.964;2024-03-02T15:26:18;16.50;99.90
18335;DHT22;9293;49.524;10.964;2024-03-02T15:28:46;16.70;99.90
18335;DHT22;9293;49.524;10.964;2024-03-02T15:31:14;16.90;99.90
18335;DHT22;9293;49.524;10.964;2024-03-02T15:33:43;17.10;99.90
18335;DHT22;9293;49.524;10.964;2024-03-02T15:36:12;17.20;99.90
18335;DHT22;9293;49.524;10.964;2024-03-02T15:38:40;17.10;99.90
18335;DHT22;9293;49.524;10.964;2024-03-02T15:41:08;17.00;99.90
18335;DHT22;9293;49.524;10.964;2024-03-02T15:43:37;16.60;99.90
18335;DHT22;9293;49.524;10.964;2024-03-02T15:46:07;16.00;99.90
18335;DHT22;9293;49.524;10.964;2024-03-02T15:48:37;15.80;99.90
18335;DHT22;9293;49.524;10.964;2024-03-02T15:51:13;15.90;99.90
18335;DHT22;9293;49.524;10.964;2024-03-02T15:53:41;15.60;99.90
18335;DHT22;9293;49.524;10.964;2024-03-02T15:56:10;15.20;99.90
18335;DHT22;9293;49.524;10.964;2024-03-02T15:58:38;14.50;99.90
18335;DHT22;9293;49.524;10.964;2024-03-02T16:01:06;14.00;99.90
18335;DHT22;9293;49.524;10.964;2024-03-02T16:03:35;13.70;99.90
18335;DHT22;9293;49.524;10.964;2024-03-02T16:06:04;13.40;99.90